Time;durP1;ratioP1;P1;durP2;ratioP2;P2;SDS_P1;SDS_P2;PMS_P1;PMS_P2;Temp;Humidity;BMP_temperature;BMP_pressure;BME280_temperature;BME280_humidity;BME280_pressure;Samples;Min_cycle;Max_cycle;Signal;HPM_P1;HPM_P2
2022/05/16 00:02:14;;;;;;;5.07;2.90;;;11.70;99.90;;;;;;5003984;28;20500;-53
2022/05/16 00:04:43;;;;;;;5.50;3.33;;;11.70;99.90;;;;;;5001318;28;20519;-53
2022/05/16 00:07:11;;;;;;;8.13;2.93;;;11.60;99.90;;;;;;5003448;28;20523;-53
2022/05/16 00:09:37;;;;;;;9.73;3.10;;;11.60;99.90;;;;;;5001099;28;20977;-53
2022/05/16 00:12:06;;;;;;;7.40;3.93;;;11.60;99.90;;;;;;5008913;28;20488;-53
2022/05/16 00:14:33;;;;;;;4.37;3.33;;;11.50;99.90;;;;;;5005128;28;20515;-52
2022/05/16 00:17:01;;;;;;;8.90;3.23;;;11.50;99.90;;;;;;5000919;28;20526;-53
2022/05/16 00:19:27;;;;;;;5.60;3.00;;;11.40;99.90;;;;;;5004985;28;20463;-52
2022/05/16 00:21:54;;;;;;;5.80;3.03;;;11.40;99.90;;;;;;5001351;28;20564;-53
2022/05/16 00:24:26;;;;;;;17.40;3.40;;;11.40;99.90;;;;;;5004454;28;20586;-53
2022/05/16 00:26:53;;;;;;;7.63;3.00;;;11.40;99.90;;;;;;4999227;28;20547;-53
2022/05/16 00:29:19;;;;;;;4.70;2.53;;;11.40;99.90;;;;;;5005045;28;20464;-53
2022/05/16 00:31:46;;;;;;;10.07;3.60;;;11.40;99.90;;;;;;5004513;28;20487;-52
2022/05/16 00:34:15;;;;;;;5.10;2.50;;;11.40;99.90;;;;;;5000739;28;20483;-53
2022/05/16 00:36:47;;;;;;;4.70;2.90;;;11.30;99.90;;;;;;5002295;28;20538;-52
2022/05/16 00:39:13;;;;;;;7.70;2.93;;;11.40;99.90;;;;;;5007407;28;20470;-52
2022/05/16 00:41:41;;;;;;;6.87;3.23;;;11.30;99.90;;;;;;5007975;28;20459;-53
2022/05/16 00:44:08;;;;;;;7.53;3.63;;;11.30;99.90;;;;;;5006408;28;20520;-53
2022/05/16 00:46:34;;;;;;;7.07;2.60;;;11.20;99.90;;;;;;5006802;28;20495;-54
2022/05/16 00:49:03;;;;;;;8.97;3.37;;;11.10;99.90;;;;;;5008227;28;20495;-53
2022/05/16 00:51:35;;;;;;;5.93;3.50;;;11.10;99.90;;;;;;5005667;28;21251;-52
2022/05/16 00:54:06;;;;;;;4.13;3.03;;;11.10;99.90;;;;;;5004952;28;20515;-52
2022/05/16 00:56:34;;;;;;;5.00;3.33;;;11.10;99.90;;;;;;5006145;28;20496;-53
2022/05/16 00:59:01;;;;;;;3.63;2.80;;;11.00;99.90;;;;;;5004911;28;22356;-52
2022/05/16 01:06:58;;;;;;;8.23;3.50;;;11.00;99.90;;;;;;5008647;28;20477;-53
2022/05/16 01:09:25;;;;;;;6.23;2.87;;;11.10;99.90;;;;;;5009272;28;20467;-54
2022/05/16 01:11:52;;;;;;;6.43;3.00;;;11.00;99.90;;;;;;5004163;28;20565;-52
2022/05/16 01:14:38;;;;;;;5.80;2.73;;;10.90;99.90;;;;;;5006559;28;20509;-52
2022/05/16 01:17:05;;;;;;;4.17;3.17;;;10.90;99.90;;;;;;5010438;28;20478;-54
2022/05/16 01:19:32;;;;;;;3.90;2.70;;;10.90;99.90;;;;;;5008240;28;21063;-54
2022/05/16 01:22:07;;;;;;;7.03;3.67;;;10.80;99.90;;;;;;5008529;28;20890;-53
2022/05/16 01:24:36;;;;;;;6.30;3.37;;;10.80;99.90;;;;;;5015644;28;20510;-54
2022/05/16 01:27:03;;;;;;;6.60;3.17;;;10.70;99.90;;;;;;5007377;28;20526;-52
2022/05/16 01:29:29;;;;;;;7.50;3.40;;;10.60;99.90;;;;;;5007249;28;20554;-53
2022/05/16 01:31:56;;;;;;;9.20;3.73;;;10.60;99.90;;;;;;5005383;28;20515;-54
2022/05/16 01:34:22;;;;;;;9.33;2.97;;;10.60;99.90;;;;;;5005840;28;20893;-53
2022/05/16 01:36:49;;;;;;;7.47;3.00;;;10.50;99.90;;;;;;5003313;28;20466;-53
2022/05/16 01:39:16;;;;;;;7.20;3.50;;;10.40;99.90;;;;;;5008525;28;20557;-54
2022/05/16 01:41:43;;;;;;;4.70;3.00;;;10.30;99.90;;;;;;5007887;28;21038;-52
2022/05/16 01:44:10;;;;;;;3.50;2.50;;;10.30;99.90;;;;;;5005653;28;20912;-52
2022/05/16 01:46:39;;;;;;;8.23;3.77;;;10.20;99.90;;;;;;4998916;28;20514;-52
2022/05/16 01:49:07;;;;;;;6.50;3.63;;;10.20;99.90;;;;;;5012625;28;20463;-53
2022/05/16 01:51:35;;;;;;;11.50;3.30;;;10.10;99.90;;;;;;5009273;28;20525;-53
2022/05/16 01:54:03;;;;;;;4.60;2.80;;;10.10;99.90;;;;;;5005823;28;20479;-53
2022/05/16 01:56:30;;;;;;;4.07;3.27;;;10.10;99.90;;;;;;5010081;28;20473;-52
2022/05/16 01:58:58;;;;;;;6.77;3.53;;;10.10;99.90;;;;;;5013363;28;20603;-53
2022/05/16 02:04:47;;;;;;;8.80;3.40;;;10.00;99.90;;;;;;5001477;28;20522;-52
2022/05/16 02:07:13;;;;;;;9.33;3.30;;;9.90;99.90;;;;;;5010454;28;20515;-52
2022/05/16 02:09:40;;;;;;;5.73;2.60;;;9.90;99.90;;;;;;5008620;28;20563;-53
2022/05/16 02:12:07;;;;;;;10.10;3.57;;;9.90;99.90;;;;;;5009516;28;20594;-52
2022/05/16 02:14:36;;;;;;;7.87;3.20;;;9.90;99.90;;;;;;5004041;28;20602;-53
2022/05/16 02:17:03;;;;;;;7.20;3.20;;;9.80;99.90;;;;;;5006737;28;20468;-53
2022/05/16 02:19:30;;;;;;;4.77;2.80;;;9.80;99.90;;;;;;5012765;28;20555;-53
2022/05/16 02:24:42;;;;;;;16.13;4.37;;;9.80;99.90;;;;;;5004034;28;20474;-53
2022/05/16 02:27:10;;;;;;;4.40;2.93;;;9.80;99.90;;;;;;5006010;28;20468;-52
2022/05/16 02:29:38;;;;;;;6.93;2.90;;;9.70;99.90;;;;;;5010379;28;20916;-53
2022/05/16 02:32:06;;;;;;;5.63;2.90;;;9.70;99.90;;;;;;5004931;28;20591;-53
2022/05/16 02:34:33;;;;;;;7.50;3.07;;;9.70;99.90;;;;;;5006880;28;20511;-53
2022/05/16 02:36:59;;;;;;;6.20;3.17;;;9.70;99.90;;;;;;5006862;28;20623;-52
2022/05/16 02:39:27;;;;;;;4.90;2.80;;;9.80;99.90;;;;;;5004918;28;20492;-52
2022/05/16 02:41:54;;;;;;;8.17;2.87;;;9.70;99.90;;;;;;5004955;28;20456;-53
2022/05/16 02:44:21;;;;;;;8.20;3.40;;;9.80;99.90;;;;;;5010000;28;20484;-54
2022/05/16 02:46:49;;;;;;;5.77;2.90;;;9.70;99.90;;;;;;5005895;28;21222;-53
2022/05/16 02:49:16;;;;;;;5.03;2.90;;;9.80;99.90;;;;;;5007444;28;20554;-52
2022/05/16 02:51:42;;;;;;;12.63;3.00;;;9.80;99.90;;;;;;5005503;28;20491;-52
2022/05/16 02:54:09;;;;;;;4.00;2.87;;;9.80;99.90;;;;;;5009379;28;21121;-52
2022/05/16 02:56:36;;;;;;;5.20;2.63;;;9.80;99.90;;;;;;5006310;28;20583;-52
2022/05/16 02:59:02;;;;;;;5.20;2.70;;;9.80;99.90;;;;;;5004996;28;20549;-53
2022/05/16 03:01:29;;;;;;;4.90;3.17;;;9.80;99.90;;;;;;5003785;28;20491;-53
2022/05/16 03:03:58;;;;;;;6.60;3.03;;;9.80;99.90;;;;;;5010415;28;20460;-53
2022/05/16 03:06:24;;;;;;;8.07;4.27;;;9.80;99.90;;;;;;5006066;28;20981;-53
2022/05/16 03:08:51;;;;;;;6.60;3.10;;;9.80;99.90;;;;;;5006554;28;20571;-52
2022/05/16 03:11:17;;;;;;;9.73;3.37;;;9.80;99.90;;;;;;5003642;28;20570;-54
2022/05/16 03:13:44;;;;;;;4.60;2.90;;;9.80;99.90;;;;;;5005109;28;20559;-53
2022/05/16 03:16:11;;;;;;;8.30;3.73;;;9.80;99.90;;;;;;5004903;28;20463;-53
2022/05/16 03:18:37;;;;;;;4.40;2.63;;;9.70;99.90;;;;;;5007626;28;20943;-53
2022/05/16 03:21:06;;;;;;;5.90;3.60;;;9.70;99.90;;;;;;5005493;28;20587;-53
2022/05/16 03:23:33;;;;;;;6.73;3.20;;;9.70;99.90;;;;;;5008674;28;20470;-52
2022/05/16 03:25:59;;;;;;;6.90;3.00;;;9.70;99.90;;;;;;5006682;28;20603;-53
2022/05/16 03:28:26;;;;;;;5.73;2.80;;;9.70;99.90;;;;;;5005931;28;20467;-53
2022/05/16 03:30:53;;;;;;;3.17;2.27;;;9.70;99.90;;;;;;5004746;28;20606;-52
2022/05/16 03:33:20;;;;;;;5.00;3.40;;;9.70;99.90;;;;;;5001062;28;20460;-52
2022/05/16 03:35:47;;;;;;;4.90;3.17;;;9.70;99.90;;;;;;5003146;28;20490;-52
2022/05/16 03:40:55;;;;;;;3.43;2.40;;;9.70;99.90;;;;;;5007749;28;20446;-54
2022/05/16 03:43:22;;;;;;;5.87;3.20;;;9.70;99.90;;;;;;5005084;28;20554;-53
2022/05/16 03:45:49;;;;;;;5.00;2.60;;;9.70;99.90;;;;;;5005984;28;20492;-52
2022/05/16 03:48:15;;;;;;;6.90;3.53;;;9.70;99.90;;;;;;5006990;28;20461;-52
2022/05/16 03:50:42;;;;;;;7.28;3.15;;;9.80;99.90;;;;;;5008600;28;20582;-53
2022/05/16 03:53:08;;;;;;;4.40;2.80;;;9.80;99.90;;;;;;5007961;28;20232;-52
2022/05/16 03:55:36;;;;;;;7.23;3.10;;;9.80;99.90;;;;;;5006768;28;20534;-53
2022/05/16 03:58:03;;;;;;;4.27;2.90;;;9.90;99.90;;;;;;5010387;28;20507;-52
2022/05/16 04:00:29;;;;;;;2.63;2.43;;;9.90;99.90;;;;;;5002337;28;20456;-52
2022/05/16 04:02:56;;;;;;;5.77;2.90;;;9.90;99.90;;;;;;5008008;28;20496;-52
2022/05/16 04:05:24;;;;;;;6.80;3.13;;;10.00;99.90;;;;;;5007178;28;20535;-53
2022/05/16 04:07:51;;;;;;;4.97;3.07;;;10.00;99.90;;;;;;5009583;28;20460;-54
2022/05/16 04:10:18;;;;;;;4.07;3.50;;;10.00;99.90;;;;;;5005539;28;20459;-53
2022/05/16 04:12:46;;;;;;;14.83;3.30;;;10.00;99.90;;;;;;5000867;28;20585;-52
2022/05/16 04:15:13;;;;;;;5.87;3.33;;;10.10;99.90;;;;;;5007295;28;20593;-52
2022/05/16 04:17:40;;;;;;;7.53;3.70;;;10.10;99.90;;;;;;4998593;28;20469;-52
2022/05/16 04:20:07;;;;;;;6.83;2.87;;;10.20;99.90;;;;;;5004837;28;20555;-54
2022/05/16 04:22:34;;;;;;;9.20;3.90;;;10.30;99.90;;;;;;5002634;28;20542;-54
2022/05/16 04:25:01;;;;;;;11.13;2.77;;;10.30;99.90;;;;;;5005823;28;20566;-52
2022/05/16 04:27:27;;;;;;;8.30;2.90;;;10.40;99.90;;;;;;5004527;28;20590;-54
2022/05/16 04:29:55;;;;;;;5.07;2.83;;;10.50;99.90;;;;;;5011639;28;20463;-54
2022/05/16 04:32:22;;;;;;;6.53;4.27;;;10.60;99.90;;;;;;5007382;28;20495;-53
2022/05/16 04:34:48;;;;;;;5.20;3.00;;;10.60;99.90;;;;;;5006316;28;20616;-53
2022/05/16 04:37:15;;;;;;;7.33;3.00;;;10.70;99.90;;;;;;4999993;28;20898;-52
2022/05/16 04:39:41;;;;;;;7.13;2.90;;;10.80;99.90;;;;;;5002075;28;20462;-54
2022/05/16 04:44:54;;;;;;;5.57;2.60;;;11.00;99.90;;;;;;5008356;28;20831;-52
2022/05/16 04:47:21;;;;;;;6.60;3.00;;;11.20;99.90;;;;;;5004068;28;20566;-52
2022/05/16 04:49:47;;;;;;;13.90;3.27;;;11.20;99.90;;;;;;5007176;28;20601;-53
2022/05/16 04:52:14;;;;;;;5.03;2.87;;;11.30;99.90;;;;;;5000538;28;20487;-53
2022/05/16 04:54:41;;;;;;;12.73;3.80;;;11.50;99.90;;;;;;5005705;28;20933;-53
2022/05/16 04:57:08;;;;;;;14.40;2.93;;;11.50;99.90;;;;;;5001688;28;20470;-52
2022/05/16 04:59:35;;;;;;;7.00;3.07;;;11.60;99.90;;;;;;5007227;28;20483;-53
2022/05/16 05:02:03;;;;;;;5.53;3.07;;;11.70;99.90;;;;;;5003908;28;20553;-54
2022/05/16 05:04:30;;;;;;;14.33;3.73;;;11.80;99.90;;;;;;5006643;28;20483;-53
2022/05/16 05:06:57;;;;;;;9.40;3.23;;;12.00;99.90;;;;;;5006419;28;20556;-53
2022/05/16 05:09:23;;;;;;;8.30;2.40;;;12.10;31.60;;;;;;5005472;28;20455;-52
2022/05/16 05:14:42;;;;;;;13.33;3.73;;;12.40;42.60;;;;;;4954249;28;20471;-53
2022/05/16 05:17:12;;;;;;;7.60;3.43;;;12.60;36.80;;;;;;4982094;28;20468;-52
2022/05/16 05:19:40;;;;;;;11.00;2.80;;;12.60;42.90;;;;;;4994335;28;20551;-52
2022/05/16 05:22:07;;;;;;;9.70;3.23;;;12.80;57.40;;;;;;5002487;28;20455;-53
2022/05/16 05:24:34;;;;;;;4.00;2.67;;;12.80;61.10;;;;;;5009266;28;20574;-52
2022/05/16 05:27:00;;;;;;;15.83;2.93;;;13.00;63.20;;;;;;5008700;28;20927;-53
2022/05/16 05:29:27;;;;;;;7.90;2.83;;;13.00;75.60;;;;;;5006712;28;20533;-52
2022/05/16 05:31:53;;;;;;;7.70;2.50;;;13.20;79.20;;;;;;5002929;28;20654;-53
2022/05/16 05:34:21;;;;;;;9.50;3.00;;;13.20;79.00;;;;;;5004027;28;20614;-53
2022/05/16 05:36:48;;;;;;;9.40;3.27;;;13.30;82.90;;;;;;5000521;28;20590;-54
2022/05/16 05:39:16;;;;;;;14.07;3.23;;;13.40;83.90;;;;;;5007318;28;20961;-53
2022/05/16 05:41:44;;;;;;;7.90;2.90;;;13.50;84.90;;;;;;5010847;28;20510;-54
2022/05/16 05:44:10;;;;;;;6.83;2.73;;;13.50;84.60;;;;;;4999968;28;20725;-54
2022/05/16 05:46:38;;;;;;;41.70;3.27;;;13.60;88.50;;;;;;5003195;28;21275;-52
2022/05/16 05:49:05;;;;;;;9.63;2.80;;;13.80;89.70;;;;;;5007878;28;20550;-54
2022/05/16 05:51:33;;;;;;;11.30;2.70;;;13.80;97.60;;;;;;5011328;28;21414;-52
2022/05/16 05:54:00;;;;;;;5.80;3.30;;;13.90;99.90;;;;;;5008247;28;20460;-53
2022/05/16 05:56:27;;;;;;;11.93;3.30;;;13.90;99.90;;;;;;5013527;28;20542;-53
2022/05/16 05:58:54;;;;;;;5.80;2.70;;;14.00;99.90;;;;;;5009015;28;20491;-53
2022/05/16 06:01:21;;;;;;;11.13;3.30;;;14.10;99.90;;;;;;5010120;28;20487;-52
2022/05/16 06:03:48;;;;;;;11.47;4.10;;;14.10;99.90;;;;;;5007656;28;20495;-52
2022/05/16 06:06:14;;;;;;;9.17;2.63;;;14.30;99.90;;;;;;5012184;28;20577;-52
2022/05/16 06:08:42;;;;;;;8.77;3.07;;;14.30;99.90;;;;;;5013172;28;20467;-54
2022/05/16 06:11:09;;;;;;;6.43;2.43;;;14.40;99.90;;;;;;5006819;28;20507;-53
2022/05/16 06:13:35;;;;;;;14.60;3.30;;;14.40;99.90;;;;;;5005008;28;20578;-54
2022/05/16 06:16:02;;;;;;;4.70;3.03;;;14.50;99.90;;;;;;5004070;28;20856;-52
2022/05/16 06:18:28;;;;;;;7.37;2.70;;;14.60;99.90;;;;;;5009894;28;20538;-54
2022/05/16 06:20:55;;;;;;;5.23;2.50;;;14.60;99.90;;;;;;5005942;28;20548;-52
2022/05/16 06:23:22;;;;;;;6.20;3.33;;;14.70;99.90;;;;;;5006744;28;20484;-53
2022/05/16 06:25:49;;;;;;;6.70;1.83;;;14.70;99.90;;;;;;5006847;28;20520;-52
2022/05/16 06:28:19;;;;;;;5.37;1.87;;;14.90;99.90;;;;;;5007008;28;20553;-53
2022/05/16 06:30:48;;;;;;;10.77;2.40;;;15.00;99.90;;;;;;5007846;28;20546;-53
2022/05/16 06:33:15;;;;;;;10.53;3.33;;;15.10;99.90;;;;;;5004972;28;20591;-52
2022/05/16 06:35:42;;;;;;;8.47;2.10;;;15.10;99.90;;;;;;5010957;28;20571;-53
2022/05/16 06:38:12;;;;;;;10.33;2.70;;;15.20;99.90;;;;;;5006340;28;20471;-52
2022/05/16 06:40:41;;;;;;;14.83;2.47;;;15.30;99.90;;;;;;5006683;28;20459;-53
2022/05/16 06:43:10;;;;;;;4.23;2.27;;;15.30;99.90;;;;;;5004402;28;20823;-54
2022/05/16 06:45:37;;;;;;;5.60;2.50;;;15.40;99.90;;;;;;5005746;28;20574;-53
2022/05/16 06:48:04;;;;;;;5.03;2.80;;;15.50;99.90;;;;;;5004811;28;20539;-54
2022/05/16 06:50:32;;;;;;;7.40;2.77;;;15.60;99.90;;;;;;5009959;28;20954;-54
2022/05/16 06:52:59;;;;;;;7.53;2.73;;;15.70;99.90;;;;;;5005752;28;20574;-54
2022/05/16 06:55:26;;;;;;;8.27;2.40;;;15.80;99.90;;;;;;4995298;28;21249;-52
2022/05/16 06:57:53;;;;;;;15.03;3.50;;;15.80;99.90;;;;;;5007549;28;20546;-52
2022/05/16 07:00:22;;;;;;;19.67;2.67;;;15.90;99.90;;;;;;5005835;28;20503;-53
2022/05/16 07:02:48;;;;;;;4.33;2.70;;;16.00;99.90;;;;;;5008875;28;20451;-57
2022/05/16 07:05:15;;;;;;;13.80;3.30;;;16.20;99.90;;;;;;5012626;28;20555;-54
2022/05/16 07:07:42;;;;;;;6.67;2.30;;;16.30;99.90;;;;;;5007495;28;20487;-51
2022/05/16 07:10:09;;;;;;;16.00;2.63;;;16.40;99.90;;;;;;5004584;28;20499;-52
2022/05/16 07:12:36;;;;;;;8.93;2.70;;;16.50;99.90;;;;;;5003753;28;21016;-51
2022/05/16 07:15:04;;;;;;;10.53;3.17;;;16.60;99.90;;;;;;5005829;28;20484;-52
2022/05/16 07:17:31;;;;;;;8.30;2.43;;;16.70;99.90;;;;;;5005972;28;20562;-52
2022/05/16 07:19:58;;;;;;;13.43;2.57;;;16.70;99.90;;;;;;5008078;28;20559;-53
2022/05/16 07:22:25;;;;;;;8.17;2.77;;;16.70;99.90;;;;;;5004858;28;20544;-53
2022/05/16 07:24:55;;;;;;;9.20;3.10;;;16.70;99.90;;;;;;5005040;28;20490;-53
2022/05/16 07:30:09;;;;;;;4.93;2.87;;;16.80;99.90;;;;;;5005471;28;20998;-53
2022/05/16 07:32:41;;;;;;;5.90;3.10;;;16.90;99.90;;;;;;4999903;28;20483;-53
2022/05/16 07:35:11;;;;;;;6.17;2.33;;;17.00;99.90;;;;;;4999584;28;20515;-51
2022/05/16 07:37:37;;;;;;;5.70;2.40;;;17.10;99.90;;;;;;5004656;28;20467;-53
2022/05/16 07:40:07;;;;;;;6.53;2.00;;;17.20;99.90;;;;;;5006077;28;20474;-52
2022/05/16 07:42:33;;;;;;;7.10;3.27;;;17.30;99.90;;;;;;5007928;28;20483;-52
2022/05/16 07:45:01;;;;;;;7.37;3.33;;;17.40;99.90;;;;;;5006743;28;20605;-52
2022/05/16 07:47:30;;;;;;;15.30;2.83;;;17.50;99.90;;;;;;5003594;28;20987;-53
2022/05/16 07:49:58;;;;;;;11.33;3.03;;;17.60;99.90;;;;;;5004519;28;20467;-54
2022/05/16 07:52:25;;;;;;;15.27;3.27;;;17.70;99.90;;;;;;5005639;28;21068;-52
2022/05/16 07:54:52;;;;;;;22.03;2.50;;;17.80;99.90;;;;;;4999938;28;20591;-52
2022/05/16 07:57:19;;;;;;;19.13;3.10;;;17.80;99.90;;;;;;5005217;28;22510;-53
2022/05/16 07:59:46;;;;;;;9.80;2.70;;;17.90;99.90;;;;;;5005294;28;20548;-52
2022/05/16 08:02:13;;;;;;;7.20;2.00;;;18.00;99.90;;;;;;5003333;28;20455;-53
2022/05/16 08:04:40;;;;;;;3.83;2.87;;;18.10;99.90;;;;;;4998617;28;20483;-53
2022/05/16 08:07:08;;;;;;;6.47;3.20;;;18.20;99.90;;;;;;5010603;28;20499;-53
2022/05/16 08:12:24;;;;;;;4.73;2.47;;;18.40;99.90;;;;;;5004355;28;20484;-53
2022/05/16 08:14:50;;;;;;;6.03;2.80;;;18.40;99.90;;;;;;5002994;28;20734;-53
2022/05/16 08:17:17;;;;;;;9.30;2.27;;;18.60;99.90;;;;;;5008338;28;20463;-53
2022/05/16 08:19:44;;;;;;;6.70;2.67;;;18.80;99.90;;;;;;5005027;28;20543;-53
2022/05/16 08:22:12;;;;;;;6.83;2.17;;;18.90;99.90;;;;;;5000973;28;20523;-52
2022/05/16 08:24:38;;;;;;;6.80;2.20;;;19.00;99.90;;;;;;4995790;28;20480;-54
2022/05/16 08:27:05;;;;;;;8.33;2.67;;;19.00;99.90;;;;;;5002891;28;20547;-53
2022/05/16 08:29:32;;;;;;;34.13;4.10;;;19.00;99.90;;;;;;5006302;28;20499;-53
2022/05/16 08:31:59;;;;;;;21.87;4.00;;;19.10;99.90;;;;;;4998843;28;20547;-53
2022/05/16 08:34:26;;;;;;;11.00;3.30;;;19.30;99.90;;;;;;4995829;28;20609;-53
2022/05/16 08:39:55;;;;;;;5.13;2.13;;;19.50;99.90;;;;;;5000569;28;20942;-54
2022/05/16 08:42:28;;;;;;;6.40;2.50;;;19.50;99.90;;;;;;5002911;28;21034;-52
2022/05/16 08:45:00;;;;;;;8.60;2.80;;;19.60;99.90;;;;;;5002871;28;20480;-53
2022/05/16 08:47:44;;;;;;;5.20;2.47;;;19.70;99.90;;;;;;5004540;28;20839;-53
2022/05/16 08:50:15;;;;;;;4.97;2.50;;;19.80;99.90;;;;;;5002974;28;20558;-53
2022/05/16 08:52:47;;;;;;;8.00;2.83;;;19.80;99.90;;;;;;5003125;28;21027;-52
2022/05/16 08:55:26;;;;;;;6.20;2.40;;;19.90;99.90;;;;;;5002390;28;20566;-51
2022/05/16 08:57:58;;;;;;;8.57;3.00;;;20.10;99.90;;;;;;5003444;28;20550;-52
2022/05/16 09:00:30;;;;;;;5.10;2.23;;;20.20;99.90;;;;;;5011520;28;20589;-53
2022/05/16 09:02:58;;;;;;;13.30;2.77;;;20.40;99.90;;;;;;5008701;28;20468;-53
2022/05/16 09:05:30;;;;;;;5.97;1.97;;;20.80;99.90;;;;;;5013334;28;21067;-52
2022/05/16 09:07:58;;;;;;;6.70;2.70;;;20.80;99.90;;;;;;5011426;28;20467;-52
2022/05/16 09:10:35;;;;;;;7.60;2.17;;;21.00;99.90;;;;;;5008801;28;20548;-52
2022/05/16 09:13:08;;;;;;;15.20;2.57;;;21.00;99.90;;;;;;5005520;28;20890;-54
2022/05/16 09:15:44;;;;;;;19.70;3.17;;;21.10;99.90;;;;;;4999176;28;20518;-52
2022/05/16 09:18:25;;;;;;;14.27;3.03;;;21.10;99.90;;;;;;5005929;28;20899;-53
2022/05/16 09:21:03;;;;;;;4.40;2.20;;;21.30;99.90;;;;;;5000912;28;20509;-53
2022/05/16 09:23:43;;;;;;;8.33;2.60;;;21.20;99.90;;;;;;5002196;28;20467;-52
2022/05/16 09:26:20;;;;;;;3.17;1.93;;;21.10;99.90;;;;;;5009542;28;20550;-53
2022/05/16 09:28:50;;;;;;;5.20;3.43;;;21.30;99.90;;;;;;5007114;28;20491;-52
2022/05/16 09:31:21;;;;;;;5.23;1.83;;;21.40;99.90;;;;;;5004723;28;20554;-52
2022/05/16 09:33:51;;;;;;;6.60;1.73;;;21.60;99.90;;;;;;5003926;28;20571;-53
2022/05/16 09:36:22;;;;;;;2.37;2.17;;;21.60;99.90;;;;;;5007904;28;20558;-53
2022/05/16 09:38:49;;;;;;;9.67;2.90;;;21.70;99.90;;;;;;5008061;28;20542;-53
2022/05/16 09:41:23;;;;;;;5.60;1.87;;;21.80;99.90;;;;;;5009416;28;20554;-53
2022/05/16 09:43:58;;;;;;;9.20;2.77;;;21.60;99.90;;;;;;5005169;28;20451;-53
2022/05/16 09:46:33;;;;;;;12.90;2.30;;;21.90;99.90;;;;;;5006941;28;20452;-52
2022/05/16 09:49:06;;;;;;;10.60;1.87;;;21.90;99.90;;;;;;5010640;28;20459;-53
2022/05/16 09:51:43;;;;;;;6.83;2.03;;;22.00;99.90;;;;;;5001047;28;20539;-52
2022/05/16 09:54:14;;;;;;;7.37;2.43;;;22.10;99.90;;;;;;5002343;28;20912;-54
2022/05/16 09:56:55;;;;;;;2.60;1.90;;;22.10;99.90;;;;;;5006175;28;20592;-53
2022/05/16 09:59:35;;;;;;;2.03;1.63;;;22.00;99.90;;;;;;5007277;28;20977;-53
2022/05/16 10:02:12;;;;;;;4.30;1.90;;;22.00;99.90;;;;;;5004599;28;20487;-54
2022/05/16 10:04:40;;;;;;;2.70;1.83;;;22.10;99.90;;;;;;4994893;28;20566;-53
2022/05/16 10:07:07;;;;;;;5.80;1.70;;;22.10;99.90;;;;;;5005945;28;20547;-53
2022/05/16 10:09:38;;;;;;;4.97;1.60;;;22.20;99.90;;;;;;5001902;28;20559;-53
2022/05/16 10:12:09;;;;;;;2.20;1.80;;;22.10;99.90;;;;;;5001663;28;20487;-53
2022/05/16 10:14:37;;;;;;;4.70;1.63;;;22.30;99.90;;;;;;5006804;28;20495;-54
2022/05/16 10:17:07;;;;;;;6.30;1.57;;;22.50;99.90;;;;;;5003447;28;20525;-53
2022/05/16 10:19:35;;;;;;;3.37;1.87;;;22.50;99.90;;;;;;5005872;28;20991;-53
2022/05/16 10:22:04;;;;;;;9.80;1.73;;;22.40;99.90;;;;;;5001396;28;20566;-53
2022/05/16 10:24:36;;;;;;;1.73;1.50;;;22.70;99.90;;;;;;5003925;28;20579;-54
2022/05/16 10:27:08;;;;;;;9.10;1.93;;;22.70;99.90;;;;;;5002374;28;20537;-53
2022/05/16 10:29:38;;;;;;;1.87;1.70;;;22.80;99.90;;;;;;5006690;28;20506;-53
2022/05/16 10:35:02;;;;;;;16.17;2.10;;;22.90;99.90;;;;;;5000122;28;21028;-53
2022/05/16 10:37:31;;;;;;;4.87;1.67;;;22.80;99.90;;;;;;5011015;28;20466;-52
2022/05/16 10:40:05;;;;;;;20.33;2.37;;;22.80;99.90;;;;;;5012751;28;21000;-52
2022/05/16 10:42:39;;;;;;;14.13;2.27;;;22.70;99.90;;;;;;5004361;28;20558;-54
2022/05/16 10:45:11;;;;;;;2.13;1.50;;;22.60;99.90;;;;;;5011121;28;21103;-53
2022/05/16 10:47:46;;;;;;;1.80;1.60;;;22.70;99.90;;;;;;5002072;28;20538;-52
2022/05/16 10:50:17;;;;;;;7.13;2.77;;;22.80;99.90;;;;;;5002447;28;20551;-54
2022/05/16 10:52:49;;;;;;;11.10;1.37;;;22.90;99.90;;;;;;5004715;28;20464;-54
2022/05/16 10:55:16;;;;;;;6.73;1.40;;;23.00;99.90;;;;;;5007691;28;20586;-53
2022/05/16 10:58:17;;;;;;;3.60;1.30;;;23.00;99.90;;;;;;5007455;28;20491;-53
2022/05/16 11:00:51;;;;;;;7.10;1.80;;;23.10;99.90;;;;;;5006490;28;20455;-53
2022/05/16 11:03:39;;;;;;;7.90;1.83;;;23.10;99.90;;;;;;5005965;28;20548;-53
2022/05/16 11:06:22;;;;;;;3.83;1.70;;;23.10;99.90;;;;;;5009082;28;20567;-53
2022/05/16 11:08:56;;;;;;;4.23;2.03;;;23.20;99.90;;;;;;5002112;28;20467;-53
2022/05/16 11:11:28;;;;;;;4.00;1.57;;;23.00;99.90;;;;;;5005637;28;21017;-53
2022/05/16 11:14:05;;;;;;;1.80;1.10;;;23.20;99.90;;;;;;5004740;28;20923;-53
2022/05/16 11:16:34;;;;;;;5.53;1.93;;;23.50;99.90;;;;;;5000444;28;20464;-53
2022/05/16 11:19:13;;;;;;;2.83;1.50;;;23.40;99.90;;;;;;5008267;28;20502;-53
2022/05/16 11:21:48;;;;;;;3.60;1.60;;;23.60;99.90;;;;;;5005236;28;20463;-52
2022/05/16 11:24:25;;;;;;;5.00;1.63;;;23.50;99.90;;;;;;5009241;28;20538;-51
2022/05/16 11:26:58;;;;;;;2.73;1.73;;;23.40;99.90;;;;;;5006474;28;20562;-52
2022/05/16 11:29:39;;;;;;;13.00;2.60;;;23.50;99.90;;;;;;5010098;28;20542;-52
2022/05/16 11:32:37;;;;;;;7.73;1.80;;;23.60;99.90;;;;;;5003617;28;21421;-52
2022/05/16 11:35:08;;;;;;;3.77;1.70;;;23.70;99.90;;;;;;4994844;28;20488;-53
2022/05/16 11:38:02;;;;;;;11.60;2.00;;;23.80;99.90;;;;;;5000658;28;20541;-53
2022/05/16 11:40:37;;;;;;;4.50;1.90;;;24.00;99.90;;;;;;5003874;28;20459;-52
2022/05/16 11:43:13;;;;;;;7.40;3.37;;;24.10;99.90;;;;;;5003278;28;20594;-53
2022/05/16 11:46:07;;;;;;;4.97;1.60;;;23.80;99.90;;;;;;5008213;28;20528;-54
2022/05/16 11:48:44;;;;;;;2.43;1.60;;;23.90;99.90;;;;;;4998671;28;20457;-52
2022/05/16 11:51:20;;;;;;;11.57;1.53;;;23.80;99.90;;;;;;5002597;28;20555;-53
2022/05/16 11:53:50;;;;;;;6.63;1.63;;;23.80;99.90;;;;;;5007775;28;20504;-55
2022/05/16 12:02:13;;;;;;;2.60;1.67;;;23.90;99.90;;;;;;4991524;28;20458;-51
2022/05/16 12:04:43;;;;;;;4.43;1.80;;;23.90;99.90;;;;;;4991803;28;20537;-51
2022/05/16 12:07:17;;;;;;;1.37;1.20;;;23.90;99.90;;;;;;4991512;28;20521;-52
2022/05/16 12:09:55;;;;;;;4.47;1.73;;;23.90;99.90;;;;;;4995279;28;20562;-54
2022/05/16 12:12:31;;;;;;;10.93;1.90;;;23.90;99.90;;;;;;4993412;28;20454;-53
2022/05/16 12:15:26;;;;;;;1.90;1.47;;;24.10;99.90;;;;;;4992389;28;20490;-52
2022/05/16 12:17:56;;;;;;;1.80;1.70;;;23.90;99.90;;;;;;4992175;28;20514;-53
2022/05/16 12:20:39;;;;;;;4.30;1.70;;;24.00;99.90;;;;;;4990367;28;20509;-54
2022/05/16 12:23:06;;;;;;;9.37;3.70;;;24.00;99.90;;;;;;4987637;28;20534;-52
2022/05/16 12:25:35;;;;;;;9.40;2.47;;;24.10;99.90;;;;;;4994978;28;20481;-53
2022/05/16 12:28:23;;;;;;;7.67;3.40;;;24.20;99.90;;;;;;4996314;28;20543;-53
2022/05/16 12:30:55;;;;;;;2.47;1.50;;;24.20;99.90;;;;;;5000491;28;20840;-54
2022/05/16 12:33:50;;;;;;;6.93;2.00;;;24.20;99.90;;;;;;4998690;28;20912;-53
2022/05/16 12:36:18;;;;;;;5.07;1.73;;;24.20;99.90;;;;;;5006502;28;21020;-53
2022/05/16 12:38:48;;;;;;;4.60;1.60;;;24.40;99.90;;;;;;5002021;28;20465;-52
2022/05/16 12:41:39;;;;;;;3.90;1.97;;;24.50;99.90;;;;;;4999479;28;20558;-52
2022/05/16 12:44:40;;;;;;;5.00;2.17;;;24.50;99.90;;;;;;5000732;28;20578;-51
2022/05/16 12:47:47;;;;;;;4.97;1.97;;;24.30;99.90;;;;;;5003836;28;21044;-52
2022/05/16 12:50:24;;;;;;;2.50;1.80;;;23.90;99.90;;;;;;4979814;28;20542;-52
2022/05/16 12:53:21;;;;;;;2.63;2.40;;;24.00;99.90;;;;;;4999837;28;20514;-52
2022/05/16 12:56:01;;;;;;;5.10;2.23;;;24.10;99.90;;;;;;5002966;28;20574;-53
2022/05/16 12:58:37;;;;;;;5.07;1.90;;;24.20;99.90;;;;;;5005910;28;20450;-52
2022/05/16 13:01:18;;;;;;;3.60;1.70;;;24.30;99.90;;;;;;5002694;28;20459;-53
2022/05/16 13:03:52;;;;;;;3.40;2.33;;;24.40;99.90;;;;;;4998778;28;20546;-53
2022/05/16 13:06:39;;;;;;;4.23;1.53;;;24.50;99.90;;;;;;5002053;28;21144;-52
2022/05/16 13:09:17;;;;;;;13.57;1.97;;;24.70;99.90;;;;;;5004044;28;20572;-51
2022/05/16 13:11:49;;;;;;;16.80;2.43;;;24.70;99.90;;;;;;5001481;28;20502;-53
2022/05/16 13:14:29;;;;;;;5.67;3.30;;;24.70;99.90;;;;;;5001360;28;20491;-52
2022/05/16 13:16:57;;;;;;;5.50;1.53;;;24.70;99.90;;;;;;5000293;28;20589;-52
2022/05/16 13:19:30;;;;;;;3.83;2.60;;;24.80;99.90;;;;;;5003673;28;20463;-52
2022/05/16 13:22:06;;;;;;;4.33;2.20;;;24.60;99.90;;;;;;4998659;28;20546;-53
2022/05/16 13:24:33;;;;;;;6.20;2.10;;;24.70;99.90;;;;;;4998277;28;20483;-52
2022/05/16 13:29:47;;;;;;;3.33;2.10;;;24.80;99.90;;;;;;5000855;28;20458;-51
2022/05/16 13:32:16;;;;;;;7.00;1.70;;;24.80;99.90;;;;;;4998314;28;20490;-52
2022/05/16 13:34:49;;;;;;;5.30;2.63;;;25.00;99.90;;;;;;4996651;28;20492;-53
2022/05/16 13:37:21;;;;;;;6.30;2.23;;;25.00;99.90;;;;;;5002465;28;20459;-52
2022/05/16 13:39:50;;;;;;;4.83;1.87;;;24.90;99.90;;;;;;5008230;28;20542;-53
2022/05/16 13:42:23;;;;;;;4.97;2.20;;;24.90;99.90;;;;;;5002175;28;20977;-52